createdAt,value
2022-10-13T00:01:23.149Z,14.20
2022-10-13T00:03:51.072Z,15.20
2022-10-13T00:06:28.455Z,15.75
2022-10-13T00:08:58.251Z,17.02
2022-10-13T00:11:30.949Z,15.98
2022-10-13T00:14:10.825Z,16.70
2022-10-13T00:16:49.227Z,18.40
2022-10-13T00:19:17.030Z,17.75
2022-10-13T00:21:56.222Z,15.90
2022-10-13T00:24:24.070Z,17.17
2022-10-13T00:26:57.065Z,16.60
2022-10-13T00:29:27.327Z,17.10
2022-10-13T00:31:58.853Z,17.85
2022-10-13T00:34:33.003Z,17.13
2022-10-13T00:37:03.647Z,19.98
2022-10-13T00:39:42.370Z,17.17
2022-10-13T00:42:13.126Z,16.38
2022-10-13T00:45:16.487Z,16.92
2022-10-13T00:47:49.135Z,16.10
2022-10-13T00:52:55.396Z,16.65
2022-10-13T00:55:26.950Z,17.98
2022-10-13T00:58:05.466Z,18.75
2022-10-13T01:00:50.855Z,16.85
2022-10-13T01:03:28.250Z,17.27
2022-10-13T01:05:59.684Z,17.52
2022-10-13T01:08:36.778Z,19.42
2022-10-13T01:11:46.085Z,18.73
2022-10-13T01:14:45.110Z,18.00
2022-10-13T01:19:59.904Z,16.80
2022-10-13T01:22:53.304Z,18.25
2022-10-13T01:25:46.373Z,19.00
2022-10-13T01:28:16.551Z,19.85
2022-10-13T01:31:16.909Z,18.35
2022-10-13T01:33:59.058Z,18.35
2022-10-13T01:36:41.639Z,18.25
2022-10-13T01:39:26.190Z,18.58
2022-10-13T01:42:20.763Z,19.90
2022-10-13T01:45:03.000Z,18.77
2022-10-13T01:47:34.480Z,19.35
2022-10-13T01:50:06.584Z,18.75
2022-10-13T01:52:36.574Z,20.20
2022-10-13T01:57:35.323Z,19.63
2022-10-13T02:00:04.933Z,18.55
2022-10-13T02:02:58.143Z,19.48
2022-10-13T02:05:49.558Z,18.58
2022-10-13T02:08:26.162Z,19.52
2022-10-13T02:10:58.475Z,19.05
2022-10-13T02:13:27.474Z,21.65
2022-10-13T02:15:56.282Z,19.80
2022-10-13T02:18:32.198Z,19.15
2022-10-13T02:21:08.743Z,21.35
2022-10-13T02:23:36.841Z,21.80
2022-10-13T02:26:09.435Z,20.00
2022-10-13T02:28:38.203Z,21.88
2022-10-13T02:31:07.218Z,22.45
2022-10-13T02:33:37.794Z,21.90
2022-10-13T02:36:08.235Z,23.52
2022-10-13T02:38:35.692Z,22.85
2022-10-13T02:41:03.479Z,24.02
2022-10-13T02:43:30.947Z,22.75
2022-10-13T02:46:01.594Z,24.20
2022-10-13T02:48:33.460Z,21.38
2022-10-13T02:51:04.684Z,24.48
2022-10-13T02:53:34.392Z,23.58
2022-10-13T02:56:10.535Z,25.33
2022-10-13T02:58:38.479Z,22.08
2022-10-13T03:01:19.137Z,22.48
2022-10-13T03:03:46.623Z,23.13
2022-10-13T03:06:15.409Z,25.20
2022-10-13T03:08:57.542Z,22.70
2022-10-13T03:11:25.077Z,23.27
2022-10-13T03:13:52.777Z,25.63
2022-10-13T03:16:28.081Z,24.15
2022-10-13T03:19:00.867Z,25.10
2022-10-13T03:21:29.456Z,25.40
2022-10-13T03:23:57.018Z,24.17
2022-10-13T03:26:27.639Z,24.77
2022-10-13T03:28:58.293Z,25.40
2022-10-13T03:31:27.117Z,24.38
2022-10-13T03:34:03.109Z,25.17
2022-10-13T03:36:31.022Z,25.98
2022-10-13T03:38:58.958Z,25.38
2022-10-13T03:41:27.247Z,26.25
2022-10-13T03:43:54.858Z,24.73
2022-10-13T03:46:29.541Z,24.35
2022-10-13T03:48:58.621Z,25.45
2022-10-13T03:51:26.341Z,26.98
2022-10-13T03:53:54.448Z,25.58
2022-10-13T03:56:23.050Z,27.00
2022-10-13T03:58:55.699Z,24.95
2022-10-13T04:03:59.727Z,26.38
2022-10-13T04:06:28.034Z,26.73
2022-10-13T04:08:59.133Z,25.88
2022-10-13T04:11:28.970Z,25.60
2022-10-13T04:13:58.703Z,27.05
2022-10-13T04:16:27.532Z,26.38
2022-10-13T04:18:58.914Z,23.60
2022-10-13T04:21:26.527Z,26.60
2022-10-13T04:23:57.263Z,24.95
2022-10-13T04:26:25.878Z,26.70
2022-10-13T04:28:54.441Z,27.73
2022-10-13T04:31:28.034Z,27.02
2022-10-13T04:33:57.006Z,25.05
2022-10-13T04:36:26.879Z,25.00
2022-10-13T04:38:56.152Z,25.88
2022-10-13T04:41:24.201Z,24.88
2022-10-13T04:43:51.869Z,25.27
2022-10-13T04:46:29.900Z,25.70
2022-10-13T04:48:57.681Z,27.77
2022-10-13T04:51:33.843Z,27.08
2022-10-13T04:54:02.042Z,26.30
2022-10-13T04:56:32.511Z,28.42
2022-10-13T04:59:02.667Z,26.88
2022-10-13T05:01:30.087Z,26.98
2022-10-13T05:03:58.792Z,25.95
2022-10-13T05:06:28.202Z,28.37
2022-10-13T05:08:58.840Z,27.73
2022-10-13T05:11:26.943Z,27.77
2022-10-13T05:13:54.404Z,29.25
2022-10-13T05:16:28.034Z,31.00
2022-10-13T05:18:59.427Z,27.80
2022-10-13T05:21:30.659Z,27.60
2022-10-13T05:23:58.515Z,28.67
2022-10-13T05:26:29.376Z,28.40
2022-10-13T05:28:57.585Z,29.55
2022-10-13T05:31:27.156Z,28.65
2022-10-13T05:33:55.566Z,30.90
2022-10-13T05:36:24.500Z,28.00
2022-10-13T05:38:58.116Z,27.10
2022-10-13T05:41:26.586Z,28.55
2022-10-13T05:44:04.924Z,29.98
2022-10-13T05:46:44.327Z,28.98
2022-10-13T05:49:15.586Z,29.52
2022-10-13T05:51:49.031Z,33.00
2022-10-13T05:54:16.722Z,28.73
2022-10-13T05:56:56.335Z,29.80
2022-10-13T05:59:27.268Z,29.58
2022-10-13T06:01:55.619Z,29.95
2022-10-13T06:04:36.922Z,28.92
2022-10-13T06:07:07.596Z,32.05
2022-10-13T06:09:39.275Z,30.42
2022-10-13T06:12:07.593Z,31.73
2022-10-13T06:14:35.235Z,31.73
2022-10-13T06:17:06.547Z,30.98
2022-10-13T06:19:39.461Z,30.52
2022-10-13T06:22:09.933Z,31.10
2022-10-13T06:24:39.562Z,30.52
2022-10-13T06:27:10.049Z,31.60
2022-10-13T06:29:37.803Z,31.27
2022-10-13T06:32:10.186Z,29.23
2022-10-13T06:34:40.546Z,32.65
2022-10-13T06:37:09.232Z,30.55
2022-10-13T06:39:39.927Z,33.20
2022-10-13T06:42:07.434Z,32.17
2022-10-13T06:44:38.792Z,30.60
2022-10-13T06:47:06.478Z,29.42
2022-10-13T06:49:34.037Z,30.00
2022-10-13T06:52:04.583Z,30.27
2022-10-13T06:54:32.376Z,30.15
2022-10-13T06:57:02.451Z,29.75
2022-10-13T06:59:33.750Z,31.35
2022-10-13T07:02:10.322Z,30.33
2022-10-13T07:04:45.335Z,29.98
2022-10-13T07:07:12.801Z,28.45
2022-10-13T07:09:43.049Z,28.17
2022-10-13T07:12:12.829Z,28.30
2022-10-13T07:14:43.801Z,27.83
2022-10-13T07:17:12.005Z,32.70
2022-10-13T07:19:48.819Z,29.17
2022-10-13T07:22:29.378Z,31.08
2022-10-13T07:24:57.158Z,30.75
2022-10-13T07:27:25.175Z,30.02
2022-10-13T07:29:53.020Z,30.77
2022-10-13T07:32:20.793Z,32.67
2022-10-13T07:34:50.952Z,31.77
2022-10-13T07:37:22.250Z,31.98
2022-10-13T07:39:51.573Z,34.42
2022-10-13T07:42:21.780Z,34.33
2022-10-13T07:44:49.291Z,32.42
2022-10-13T07:47:18.162Z,35.78
2022-10-13T07:49:45.798Z,38.05
2022-10-13T07:52:13.500Z,36.50
2022-10-13T07:54:47.386Z,39.50
2022-10-13T07:57:15.795Z,40.45
2022-10-13T07:59:47.458Z,40.20
2022-10-13T08:02:19.946Z,41.20
2022-10-13T08:04:47.691Z,42.25
2022-10-13T08:07:16.988Z,39.75
2022-10-13T08:09:45.930Z,43.55
2022-10-13T08:12:15.927Z,43.85
2022-10-13T08:14:43.548Z,40.33
2022-10-13T08:17:11.593Z,42.67
2022-10-13T08:19:39.577Z,40.47
2022-10-13T08:22:20.731Z,43.15
2022-10-13T08:24:55.961Z,44.20
2022-10-13T08:27:37.082Z,39.85
2022-10-13T08:30:12.374Z,41.20
2022-10-13T08:32:42.467Z,40.50
2022-10-13T08:35:14.691Z,39.58
2022-10-13T08:37:42.333Z,39.72
2022-10-13T08:40:13.624Z,38.03
2022-10-13T08:42:50.166Z,36.90
2022-10-13T08:45:47.164Z,38.05
2022-10-13T08:48:20.787Z,40.65
2022-10-13T08:50:54.800Z,37.88
2022-10-13T08:53:32.346Z,37.08
2022-10-13T08:56:07.274Z,37.67
2022-10-13T08:58:39.758Z,37.63
2022-10-13T09:01:10.310Z,36.60
2022-10-13T09:04:00.175Z,37.47
2022-10-13T09:06:34.488Z,35.53
2022-10-13T09:09:06.216Z,38.33
2022-10-13T09:11:47.958Z,35.50
2022-10-13T09:14:26.207Z,37.17
2022-10-13T09:16:56.925Z,35.05
2022-10-13T09:22:01.992Z,37.92
2022-10-13T09:24:32.739Z,37.25
2022-10-13T09:27:12.718Z,36.50
2022-10-13T09:29:43.367Z,37.83
2022-10-13T09:32:20.501Z,38.80
2022-10-13T09:34:48.782Z,34.95
2022-10-13T09:37:38.542Z,38.00
2022-10-13T09:40:25.806Z,37.85
2022-10-13T09:42:54.477Z,36.95
2022-10-13T09:45:26.163Z,36.38
2022-10-13T09:48:01.095Z,38.38
2022-10-13T09:50:32.570Z,37.95
2022-10-13T09:53:25.229Z,36.65
2022-10-13T09:56:12.189Z,36.33
2022-10-13T09:58:46.370Z,41.78
2022-10-13T10:01:24.751Z,39.03
2022-10-13T10:03:55.081Z,38.45
2022-10-13T10:06:27.711Z,37.45
2022-10-13T10:09:05.298Z,38.25
2022-10-13T10:11:41.567Z,40.10
2022-10-13T10:14:27.342Z,37.65
2022-10-13T10:17:10.640Z,37.92
2022-10-13T10:19:50.045Z,41.45
2022-10-13T10:22:46.969Z,40.85
2022-10-13T10:25:19.510Z,42.22
2022-10-13T10:31:01.281Z,43.72
2022-10-13T10:33:40.936Z,41.80
2022-10-13T10:36:17.386Z,39.90
2022-10-13T10:41:23.580Z,40.72
2022-10-13T10:44:02.040Z,41.15
2022-10-13T10:46:34.371Z,41.60
2022-10-13T10:49:03.742Z,43.25
2022-10-13T10:51:37.987Z,41.40
2022-10-13T10:54:24.023Z,43.20
2022-10-13T10:57:07.079Z,40.40
2022-10-13T10:59:59.029Z,35.42
2022-10-13T11:05:16.916Z,35.30
2022-10-13T11:07:51.481Z,34.22
2022-10-13T11:10:23.774Z,33.33
2022-10-13T11:13:02.696Z,21.50
2022-10-13T11:15:54.041Z,16.20
2022-10-13T11:18:42.861Z,10.05
2022-10-13T11:21:10.459Z,11.35
2022-10-13T11:23:50.781Z,10.23
2022-10-13T11:26:32.669Z,7.03
2022-10-13T11:29:06.636Z,7.00
2022-10-13T11:31:59.032Z,7.00
2022-10-13T11:34:32.845Z,6.13
2022-10-13T11:37:12.930Z,6.20
2022-10-13T11:39:58.403Z,6.00
2022-10-13T11:42:48.175Z,5.68
2022-10-13T11:45:23.431Z,6.18
2022-10-13T11:47:54.262Z,6.82
2022-10-13T11:50:25.588Z,7.45
2022-10-13T11:53:15.371Z,6.65
2022-10-13T11:55:56.617Z,6.60
2022-10-13T11:58:31.805Z,5.63
2022-10-13T12:01:06.218Z,6.45
2022-10-13T12:03:35.231Z,6.85
2022-10-13T12:06:09.270Z,7.22
2022-10-13T12:08:37.353Z,6.47
2022-10-13T12:11:13.669Z,7.10
2022-10-13T12:13:51.211Z,6.25
2022-10-13T12:16:19.016Z,6.15
2022-10-13T12:18:58.121Z,6.63
2022-10-13T12:21:31.922Z,6.22
2022-10-13T12:24:08.697Z,7.03
2022-10-13T12:26:49.018Z,6.95
2022-10-13T12:29:26.744Z,6.63
2022-10-13T12:31:54.775Z,7.28
2022-10-13T12:34:27.751Z,7.75
2022-10-13T12:37:06.592Z,6.93
2022-10-13T12:39:41.163Z,6.03
2022-10-13T12:42:16.470Z,6.30
2022-10-13T12:44:50.583Z,7.20
2022-10-13T12:47:37.755Z,6.18
2022-10-13T12:50:28.119Z,4.90
2022-10-13T12:53:15.208Z,4.72
2022-10-13T12:55:50.794Z,4.20
2022-10-13T12:58:22.539Z,4.40
2022-10-13T13:00:56.844Z,5.03
2022-10-13T13:03:28.381Z,5.10
2022-10-13T13:06:18.367Z,5.55
2022-10-13T13:09:07.212Z,6.18
2022-10-13T13:11:36.721Z,5.40
2022-10-13T13:14:39.317Z,5.57
2022-10-13T13:17:09.481Z,4.95
2022-10-13T13:19:37.529Z,4.63
2022-10-13T13:22:13.102Z,4.57
2022-10-13T13:24:40.859Z,5.53
2022-10-13T13:27:34.933Z,4.57
2022-10-13T13:30:02.649Z,4.75
2022-10-13T13:32:31.163Z,5.38
2022-10-13T13:35:00.688Z,5.23
2022-10-13T13:39:55.598Z,5.05
2022-10-13T13:42:26.093Z,5.35
2022-10-13T13:44:53.818Z,6.03
2022-10-13T13:47:25.588Z,5.13
2022-10-13T13:50:07.889Z,4.57
2022-10-13T13:52:45.569Z,3.85
2022-10-13T13:55:14.623Z,3.15
2022-10-13T13:57:54.117Z,3.00
2022-10-13T14:00:30.269Z,3.33
2022-10-13T14:02:58.533Z,3.38
2022-10-13T14:05:26.177Z,3.25
2022-10-13T14:07:58.141Z,4.28
2022-10-13T14:10:36.212Z,3.80
2022-10-13T14:13:20.632Z,3.80
2022-10-13T14:16:06.475Z,3.90
2022-10-13T14:18:49.722Z,4.40
2022-10-13T14:21:19.660Z,4.43
2022-10-13T14:23:48.223Z,4.88
2022-10-13T14:26:16.129Z,5.75
2022-10-13T14:28:51.829Z,6.65
2022-10-13T14:31:20.439Z,5.05
2022-10-13T14:33:54.148Z,4.65
2022-10-13T14:36:27.935Z,4.75
2022-10-13T14:39:02.738Z,3.83
2022-10-13T14:41:30.232Z,3.90
2022-10-13T14:43:57.966Z,4.70
2022-10-13T14:46:29.111Z,3.60
2022-10-13T14:49:02.887Z,3.03
2022-10-13T14:51:33.423Z,3.30
2022-10-13T14:54:07.294Z,3.85
2022-10-13T14:56:37.617Z,3.55
2022-10-13T14:59:06.136Z,2.92
2022-10-13T15:01:43.549Z,2.80
2022-10-13T15:04:11.378Z,2.47
2022-10-13T15:06:41.286Z,2.58
2022-10-13T15:09:17.941Z,2.60
2022-10-13T15:11:50.732Z,2.70
2022-10-13T15:14:18.515Z,2.75
2022-10-13T15:16:48.306Z,3.47
2022-10-13T15:19:20.573Z,3.33
2022-10-13T15:21:58.620Z,4.30
2022-10-13T15:24:26.011Z,4.53
2022-10-13T15:26:56.268Z,4.38
2022-10-13T15:29:27.595Z,4.75
2022-10-13T15:32:07.491Z,4.30
2022-10-13T15:34:47.428Z,4.57
2022-10-13T15:37:15.977Z,5.35
2022-10-13T15:39:57.515Z,4.53
2022-10-13T15:42:25.737Z,5.55
2022-10-13T15:45:10.378Z,5.35
2022-10-13T15:47:38.918Z,5.25
2022-10-13T15:50:12.001Z,5.68
2022-10-13T15:52:42.497Z,6.15
2022-10-13T15:55:10.837Z,8.35
2022-10-13T15:57:40.546Z,7.15
2022-10-13T16:00:09.166Z,5.85
2022-10-13T16:02:45.452Z,6.15
2022-10-13T16:05:13.959Z,5.85
2022-10-13T16:07:42.290Z,5.20
2022-10-13T16:10:19.874Z,4.72
2022-10-13T16:12:50.610Z,5.78
2022-10-13T16:15:18.787Z,5.00
2022-10-13T16:17:48.975Z,5.80
2022-10-13T16:20:16.688Z,5.85
2022-10-13T16:22:44.370Z,6.90
2022-10-13T16:25:14.809Z,6.72
2022-10-13T16:27:44.552Z,6.25
2022-10-13T16:30:12.575Z,5.60
2022-10-13T16:32:41.708Z,6.10
2022-10-13T16:35:10.261Z,7.18
2022-10-13T16:37:37.851Z,6.50
2022-10-13T16:40:08.584Z,6.22
2022-10-13T16:42:36.199Z,6.68
2022-10-13T16:45:05.805Z,6.13
2022-10-13T16:50:11.879Z,7.40
2022-10-13T16:52:40.412Z,7.30
2022-10-13T16:55:13.557Z,6.43
2022-10-13T16:57:52.887Z,7.90
2022-10-13T17:00:20.569Z,7.57
2022-10-13T17:02:50.771Z,8.32
2022-10-13T17:05:19.553Z,7.95
2022-10-13T17:07:47.059Z,7.32
2022-10-13T17:10:20.148Z,7.60
2022-10-13T17:12:51.470Z,12.38
2022-10-13T17:15:31.159Z,16.35
2022-10-13T17:20:25.959Z,28.38
2022-10-13T17:22:53.385Z,21.88
2022-10-13T17:25:24.457Z,26.33
2022-10-13T17:27:52.980Z,17.52
2022-10-13T17:30:20.500Z,20.15
2022-10-13T17:32:51.047Z,18.98
2022-10-13T17:35:18.668Z,14.60
2022-10-13T17:37:46.229Z,14.75
2022-10-13T17:40:24.536Z,13.43
2022-10-13T17:45:24.422Z,13.38
2022-10-13T17:47:55.320Z,16.67
2022-10-13T17:50:31.244Z,17.77
2022-10-13T17:52:58.735Z,19.98
2022-10-13T17:55:28.263Z,17.85
2022-10-13T18:01:11.953Z,17.52
2022-10-13T18:06:09.704Z,16.88
2022-10-13T18:08:37.190Z,18.83
2022-10-13T18:11:08.853Z,19.48
2022-10-13T18:13:39.701Z,18.23
2022-10-13T18:16:12.216Z,17.83
2022-10-13T18:18:41.215Z,20.45
2022-10-13T18:21:08.959Z,17.80
2022-10-13T18:23:37.309Z,18.65
2022-10-13T18:26:06.167Z,21.00
2022-10-13T18:28:35.021Z,20.50
2022-10-13T18:31:12.590Z,21.35
2022-10-13T18:33:42.810Z,20.52
2022-10-13T18:36:13.222Z,20.00
2022-10-13T18:38:40.616Z,20.15
2022-10-13T18:41:10.956Z,18.40
2022-10-13T18:43:38.423Z,20.55
2022-10-13T18:46:09.021Z,20.58
2022-10-13T18:48:42.799Z,20.52
2022-10-13T18:51:11.576Z,20.42
2022-10-13T18:53:43.669Z,20.35
2022-10-13T18:56:20.620Z,21.67
2022-10-13T18:58:48.314Z,25.60
2022-10-13T19:01:18.438Z,25.27
2022-10-13T19:03:46.179Z,29.65
2022-10-13T19:06:14.767Z,29.08
2022-10-13T19:08:46.228Z,27.63
2022-10-13T19:11:15.313Z,25.52
2022-10-13T19:13:48.634Z,28.30
2022-10-13T19:16:19.581Z,29.60
2022-10-13T19:18:47.452Z,29.52
2022-10-13T19:21:22.772Z,25.90
2022-10-13T19:23:50.450Z,24.55
2022-10-13T19:26:24.971Z,30.73
2022-10-13T19:28:59.920Z,26.65
2022-10-13T19:31:30.962Z,25.60
2022-10-13T19:34:00.970Z,22.15
2022-10-13T19:36:30.407Z,25.90
2022-10-13T19:39:03.348Z,23.83
2022-10-13T19:41:33.303Z,27.08
2022-10-13T19:44:06.258Z,26.83
2022-10-13T19:46:41.377Z,27.75
2022-10-13T19:49:10.749Z,27.20
2022-10-13T19:51:43.984Z,28.55
2022-10-13T19:54:13.438Z,28.45
2022-10-13T19:56:44.482Z,29.27
2022-10-13T19:59:15.607Z,28.13
2022-10-13T20:01:48.585Z,30.80
2022-10-13T20:04:18.694Z,25.60
2022-10-13T20:06:46.345Z,23.27
2022-10-13T20:09:14.297Z,24.00
2022-10-13T20:11:42.258Z,24.98
2022-10-13T20:14:09.778Z,23.20
2022-10-13T20:16:38.157Z,21.35
2022-10-13T20:19:07.908Z,24.85
2022-10-13T20:21:35.308Z,21.85
2022-10-13T20:24:02.615Z,26.08
2022-10-13T20:26:33.053Z,46.35
2022-10-13T20:29:02.491Z,22.73
2022-10-13T20:31:30.079Z,21.83
2022-10-13T20:33:58.160Z,18.67
2022-10-13T20:36:37.507Z,20.42
2022-10-13T20:39:05.897Z,21.08
2022-10-13T20:41:34.638Z,21.88
2022-10-13T20:44:02.177Z,23.90
2022-10-13T20:46:37.369Z,21.67
2022-10-13T20:49:10.981Z,26.75
2022-10-13T20:51:39.647Z,29.38
2022-10-13T20:54:07.673Z,26.77
2022-10-13T20:56:38.053Z,23.63
2022-10-13T20:59:07.691Z,24.52
2022-10-13T21:04:02.313Z,24.58
2022-10-13T21:06:29.774Z,22.25
2022-10-13T21:09:03.469Z,23.85
2022-10-13T21:11:30.809Z,23.52
2022-10-13T21:13:58.362Z,24.65
2022-10-13T21:16:27.432Z,25.63
2022-10-13T21:18:57.560Z,27.50
2022-10-13T21:21:26.236Z,29.23
2022-10-13T21:23:54.410Z,27.50
2022-10-13T21:26:22.535Z,28.20
2022-10-13T21:28:50.493Z,27.13
2022-10-13T21:31:18.827Z,25.60
2022-10-13T21:33:46.199Z,22.67
2022-10-13T21:36:15.252Z,24.42
2022-10-13T21:38:43.228Z,22.23
2022-10-13T21:41:11.892Z,23.58
2022-10-13T21:43:39.847Z,22.75
2022-10-13T21:46:09.996Z,23.30
2022-10-13T21:48:42.836Z,23.05
2022-10-13T21:51:11.173Z,22.92
2022-10-13T21:53:40.284Z,24.30
2022-10-13T21:56:08.330Z,22.10
2022-10-13T21:58:51.847Z,21.92
2022-10-13T22:01:20.149Z,23.60
2022-10-13T22:03:50.821Z,20.98
2022-10-13T22:06:21.755Z,21.02
2022-10-13T22:08:50.794Z,21.75
2022-10-13T22:11:26.630Z,21.80
2022-10-13T22:13:58.444Z,21.73
2022-10-13T22:16:36.554Z,20.67
2022-10-13T22:19:04.485Z,20.50
2022-10-13T22:21:37.914Z,20.08
2022-10-13T22:24:06.276Z,20.73
2022-10-13T22:26:35.692Z,18.63
2022-10-13T22:29:04.552Z,18.33
2022-10-13T22:31:36.210Z,20.38
2022-10-13T22:34:09.234Z,24.13
2022-10-13T22:36:44.864Z,22.92
2022-10-13T22:39:15.690Z,20.27
2022-10-13T22:41:45.384Z,25.02
2022-10-13T22:44:16.680Z,25.95
2022-10-13T22:46:49.104Z,24.13
2022-10-13T22:49:19.238Z,23.98
2022-10-13T22:51:46.932Z,24.95
2022-10-13T22:54:16.923Z,23.75
2022-10-13T22:56:46.359Z,21.58
2022-10-13T22:59:16.548Z,23.45
2022-10-13T23:01:46.328Z,23.15
2022-10-13T23:04:14.419Z,21.08
2022-10-13T23:06:41.910Z,22.83
2022-10-13T23:09:13.457Z,22.67
2022-10-13T23:11:43.762Z,22.08
2022-10-13T23:14:18.669Z,23.42
2022-10-13T23:16:48.120Z,24.75
2022-10-13T23:19:18.811Z,26.25
2022-10-13T23:21:46.333Z,26.83
2022-10-13T23:24:13.781Z,27.83
2022-10-13T23:26:44.229Z,28.08
2022-10-13T23:29:16.839Z,26.60
2022-10-13T23:31:44.199Z,21.83
2022-10-13T23:34:13.026Z,24.70
2022-10-13T23:36:41.769Z,21.37
2022-10-13T23:39:15.131Z,22.27
2022-10-13T23:41:42.759Z,22.77
2022-10-13T23:44:10.307Z,21.80
2022-10-13T23:46:37.833Z,22.40
2022-10-13T23:49:09.899Z,20.13
2022-10-13T23:51:43.003Z,23.65
2022-10-13T23:54:13.810Z,21.30
2022-10-13T23:56:45.234Z,21.10
2022-10-13T23:59:15.201Z,20.50
